»·PEaware :: AAL2255 KDFW-KMCO

AAL2255 :: KDFW-KMCO

FLIGHT INFORMATION

Flight Status: Arrived
Operator:
American Airlines
More flights by this operator :: More flights under this callsign
Pilot: Drew L. (13237)
Aircraft: BOEING 767-300
(B763)
More flights by this aircraft type
Origin: KDFW Dallas-Ft Worth Intl
United States
Destination: KMCO Orlando Intl
United States
More flights between these airports :: More routes between these airports
Route: MRSSH2 ZALEA CREEM CEW J2 OJHAP OTK PIGLT4
File this flight plan on PilotEdge
Remarks: Sample flight plan
Altitude:
(Current/Filed)
37,000ft
Speed:
(Current/Filed)
115kts
Departed: 26-May-17 11:29 PM
Arrived: 27-May-17 01:34 AM
Distance/Time
Traveled:
854nm/2:05
Distance/Time
To Go:
Arrived

Flight Plot

Page will automatically refresh every two minutes.

Flight plan parsing failed; only flown route is shown


Map Options




Map Legend


Flown Route
Filed Route
Departure Airport
Arrival Airport
Navaid (VOR, NDB)
Fix

Horizontal Profiles

Position Reports

Time Latitude Longitude Heading Altitude Ground
Speed
26-May-17 23:25 32.901269 -97.037236 93 617ft 0kts
26-May-17 23:26 32.901291 -97.035387 90 617ft 19kts
26-May-17 23:27 32.902538 -97.033130 359 617ft 7kts
26-May-17 23:28 32.907573 -97.033089 0 617ft 20kts
26-May-17 23:29 32.913036 -97.032724 0 617ft 18kts
26-May-17 23:30 32.915529 -97.030462 90 617ft 12kts
26-May-17 23:31 32.900968 -97.029983 180 695ft 161kts
26-May-17 23:32 32.847047 -97.031384 178 3948ft 228kts
26-May-17 23:33 32.780811 -97.030207 183 7556ft 256kts
26-May-17 23:34 32.708237 -97.016142 144 10584ft 316kts
26-May-17 23:35 32.681502 -96.908456 79 13553ft 383kts
26-May-17 23:36 32.690248 -96.780488 87 17050ft 403kts
26-May-17 23:37 32.692699 -96.645898 88 20198ft 422kts
26-May-17 23:38 32.694668 -96.503565 88 22995ft 442kts
26-May-17 23:39 32.696510 -96.355722 89 25491ft 460kts
26-May-17 23:40 32.688201 -96.203710 95 27697ft 475kts
26-May-17 23:41 32.677638 -96.045288 95 29766ft 490kts
26-May-17 23:42 32.666529 -95.882443 95 31547ft 506kts
26-May-17 23:43 32.654932 -95.715631 95 33563ft 510kts
26-May-17 23:44 32.643110 -95.548746 95 35625ft 506kts
26-May-17 23:45 32.631152 -95.383177 95 36897ft 510kts
26-May-17 23:46 32.618989 -95.217737 96 36934ft 508kts
26-May-17 23:47 32.606515 -95.051158 96 36940ft 509kts
26-May-17 23:48 32.593816 -94.884539 96 36941ft 509kts
26-May-17 23:49 32.569493 -94.720880 109 36951ft 506kts
26-May-17 23:50 32.525687 -94.563082 110 36955ft 506kts
26-May-17 23:51 32.481118 -94.405764 110 36972ft 506kts
26-May-17 23:52 32.436913 -94.250724 110 36965ft 506kts
26-May-17 23:53 32.391892 -94.093672 110 36966ft 506kts
26-May-17 23:54 32.346685 -93.936802 110 36967ft 506kts
26-May-17 23:55 32.301221 -93.779871 110 36969ft 506kts
26-May-17 23:56 32.255523 -93.622964 110 36970ft 506kts
26-May-17 23:57 32.211036 -93.465799 104 36966ft 507kts
26-May-17 23:58 32.181363 -93.305811 103 36990ft 508kts
26-May-17 23:59 32.151400 -93.143898 103 37014ft 507kts
27-May-17 00:00 32.121167 -92.981600 103 37020ft 508kts
27-May-17 00:01 32.090690 -92.819208 103 37022ft 508kts
27-May-17 00:02 32.060102 -92.657429 103 37024ft 508kts
27-May-17 00:03 32.029235 -92.495359 104 37024ft 509kts
27-May-17 00:04 31.999729 -92.341556 104 37002ft 510kts
27-May-17 00:05 31.969724 -92.186261 104 36992ft 509kts
27-May-17 00:06 31.938183 -92.024136 104 36993ft 509kts
27-May-17 00:07 31.906350 -91.861684 104 36995ft 509kts
27-May-17 00:08 31.877452 -91.715218 104 37024ft 509kts
27-May-17 00:09 31.845243 -91.553075 104 37025ft 510kts
27-May-17 00:10 31.812984 -91.391856 103 37025ft 507kts
27-May-17 00:11 31.780927 -91.232659 104 37019ft 507kts
27-May-17 00:12 31.748614 -91.071697 103 37020ft 507kts
27-May-17 00:13 31.717771 -90.910575 103 37049ft 508kts
27-May-17 00:14 31.686699 -90.749644 103 37050ft 507kts
27-May-17 00:15 31.655311 -90.588241 103 37051ft 508kts
27-May-17 00:16 31.623789 -90.427290 103 37053ft 508kts
27-May-17 00:17 31.592348 -90.267873 103 37045ft 507kts
27-May-17 00:18 31.560503 -90.107541 103 37047ft 508kts
27-May-17 00:19 31.528397 -89.947018 103 37048ft 508kts
27-May-17 00:20 31.496062 -89.786453 103 37050ft 507kts
27-May-17 00:21 31.463446 -89.625609 103 37051ft 507kts
27-May-17 00:22 31.430698 -89.465207 103 37053ft 507kts
27-May-17 00:23 31.398346 -89.307808 104 37044ft 507kts
27-May-17 00:24 31.365269 -89.147965 104 37047ft 507kts
27-May-17 00:25 31.331960 -88.988057 104 37048ft 507kts
27-May-17 00:26 31.298402 -88.828023 104 37050ft 507kts
27-May-17 00:27 31.264742 -88.668565 104 37051ft 507kts
27-May-17 00:28 31.230803 -88.508839 104 37053ft 508kts
27-May-17 00:29 31.196827 -88.349944 104 37054ft 508kts
27-May-17 00:30 31.163879 -88.196862 104 37047ft 508kts
27-May-17 00:31 31.129239 -88.036917 104 37048ft 508kts
27-May-17 00:32 31.094646 -87.878213 104 37050ft 508kts
27-May-17 00:33 31.059832 -87.719485 104 37078ft 508kts
27-May-17 00:34 31.024755 -87.560578 104 37079ft 508kts
27-May-17 00:35 30.989453 -87.401638 104 37063ft 508kts
27-May-17 00:36 30.954432 -87.244972 104 37047ft 507kts
27-May-17 00:37 30.918758 -87.086344 104 37048ft 508kts
27-May-17 00:38 30.883366 -86.929919 104 37047ft 507kts
27-May-17 00:39 30.847407 -86.771974 104 37056ft 507kts
27-May-17 00:40 30.824719 -86.610646 89 37086ft 507kts
27-May-17 00:41 30.821403 -86.447445 90 37078ft 506kts
27-May-17 00:42 30.817853 -86.286321 90 37071ft 506kts
27-May-17 00:43 30.814086 -86.123014 90 37073ft 506kts
27-May-17 00:44 30.811252 -85.959661 90 37074ft 506kts
27-May-17 00:45 30.808200 -85.796736 89 37075ft 506kts
27-May-17 00:46 30.804946 -85.633450 89 37104ft 506kts
27-May-17 00:47 30.801500 -85.470981 89 37078ft 506kts
27-May-17 00:48 30.797876 -85.309416 89 37070ft 506kts
27-May-17 00:49 30.794001 -85.145838 89 37072ft 506kts
27-May-17 00:50 30.793683 -84.982910 87 37074ft 506kts
27-May-17 00:51 30.793386 -84.819933 87 37075ft 505kts
27-May-17 00:52 30.792877 -84.656699 87 37076ft 505kts
27-May-17 00:53 30.792171 -84.494632 87 37201ft 505kts
27-May-17 00:54 30.791264 -84.332874 88 37309ft 508kts
27-May-17 00:55 30.790141 -84.169247 88 37101ft 505kts
27-May-17 00:56 30.788820 -84.006363 88 37101ft 506kts
27-May-17 00:57 30.787290 -83.843031 88 37102ft 505kts
27-May-17 00:58 30.785560 -83.680048 88 37103ft 505kts
27-May-17 00:59 30.783632 -83.517625 88 37077ft 505kts
27-May-17 01:00 30.777352 -83.354532 100 37075ft 508kts
27-May-17 01:01 30.715229 -83.211251 134 37076ft 508kts
27-May-17 01:02 30.609895 -83.102740 140 37074ft 507kts
27-May-17 01:03 30.504752 -82.994819 140 37075ft 507kts
27-May-17 01:04 30.417017 -82.904867 140 37103ft 507kts
27-May-17 01:05 30.294294 -82.779400 140 37105ft 507kts
27-May-17 01:06 30.206415 -82.689843 139 37108ft 506kts
27-May-17 01:07 30.100900 -82.582563 140 37107ft 507kts
27-May-17 01:08 29.994245 -82.476896 147 37102ft 505kts
27-May-17 01:09 29.875558 -82.419591 164 36515ft 498kts
27-May-17 01:10 29.766610 -82.379630 165 35642ft 496kts
27-May-17 01:11 29.636007 -82.332509 165 34579ft 497kts
27-May-17 01:12 29.504333 -82.285201 165 33263ft 500kts
27-May-17 01:13 29.372114 -82.237833 164 30746ft 502kts
27-May-17 01:14 29.245159 -82.192417 165 28768ft 447kts
27-May-17 01:15 29.134164 -82.137900 154 25928ft 437kts
27-May-17 01:16 29.027919 -82.072312 153 23837ft 438kts
27-May-17 01:17 28.935086 -81.988480 137 22269ft 426kts
27-May-17 01:18 28.863125 -81.895210 124 20074ft 395kts
27-May-17 01:19 28.801685 -81.790152 124 18422ft 402kts
27-May-17 01:20 28.740924 -81.685283 124 17086ft 387kts
27-May-17 01:21 28.685274 -81.581956 120 15821ft 371kts
27-May-17 01:22 28.633566 -81.481963 120 14481ft 364kts
27-May-17 01:23 28.554033 -81.426479 179 13075ft 346kts
27-May-17 01:24 28.466158 -81.424300 182 11710ft 281kts
27-May-17 01:25 28.391339 -81.424167 182 9835ft 264kts
27-May-17 01:26 28.318284 -81.423365 180 8596ft 255kts
27-May-17 01:27 28.250307 -81.421561 180 7305ft 239kts
27-May-17 01:28 28.184172 -81.419805 180 6064ft 232kts
27-May-17 01:29 28.143392 -81.377785 74 5304ft 236kts
27-May-17 01:30 28.181328 -81.322365 7 4607ft 225kts
27-May-17 01:31 28.242232 -81.320334 357 3613ft 205kts
27-May-17 01:32 28.297262 -81.320662 359 2472ft 190kts
27-May-17 01:33 28.341970 -81.321104 359 1504ft 140kts
27-May-17 01:34 28.381288 -81.321554 359 814ft 144kts
27-May-17 01:35 28.421241 -81.321987 359 120ft 144kts
27-May-17 01:36 28.439675 -81.321165 50 107ft 19kts
27-May-17 01:37 28.439844 -81.320570 90 107ft 0kts
27-May-17 01:38 28.439485 -81.320089 168 107ft 9kts
27-May-17 01:39 28.435145 -81.319982 178 107ft 18kts
27-May-17 01:40 28.430716 -81.319665 127 107ft 9kts
27-May-17 01:41 28.428850 -81.316986 163 107ft 11kts
27-May-17 01:42 28.427608 -81.315128 55 107ft 3kts
27-May-17 01:43 28.427635 -81.315084 55 107ft 0kts
27-May-17 01:44 28.427635 -81.315084 55 107ft 0kts
27-May-17 01:45 28.427635 -81.315084 55 107ft 0kts

Navigation Log

Ident Type
Flight plan parsing failed, navigation log unavailable